Time;durP1;ratioP1;P1;durP2;ratioP2;P2;SDS_P1;SDS_P2;PMS_P1;PMS_P2;Temp;Humidity;BMP_temperature;BMP_pressure;BME280_temperature;BME280_humidity;BME280_pressure;Samples;Min_cycle;Max_cycle;Signal;HPM_P1;HPM_P2
2022/07/28 00:01:34;;;;;;;3.63;3.33;;;25.70;92.20;;;;;;6192758;28;95062;-64
2022/07/28 00:04:36;;;;;;;3.63;3.33;;;25.70;92.20;;;;;;6194927;28;94193;-64
2022/07/28 00:07:38;;;;;;;3.55;3.22;;;25.70;92.20;;;;;;6204537;28;94130;-63
2022/07/28 00:10:40;;;;;;;3.83;3.03;;;25.70;92.00;;;;;;6194261;28;94102;-64
2022/07/28 00:13:42;;;;;;;3.67;3.38;;;25.70;92.20;;;;;;6194395;28;94063;-64
2022/07/28 00:16:45;;;;;;;3.85;3.40;;;25.60;92.00;;;;;;6188330;28;94029;-63
2022/07/28 00:19:47;;;;;;;4.57;3.70;;;25.70;92.10;;;;;;6178302;28;94137;-64
2022/07/28 00:22:49;;;;;;;3.45;3.15;;;25.60;91.90;;;;;;6199648;28;93361;-63
2022/07/28 00:25:51;;;;;;;4.10;3.45;;;25.60;92.10;;;;;;6196188;28;93058;-64
2022/07/28 00:28:53;;;;;;;3.60;3.30;;;25.60;92.00;;;;;;6197520;28;94067;-63
2022/07/28 00:31:56;;;;;;;3.53;3.22;;;25.60;92.00;;;;;;6195993;28;94997;-64
2022/07/28 00:34:59;;;;;;;5.18;3.08;;;25.60;92.00;;;;;;6200431;28;94036;-64
2022/07/28 00:38:01;;;;;;;5.55;3.47;;;25.60;92.10;;;;;;6202950;28;94132;-64
2022/07/28 00:41:12;;;;;;;5.22;3.30;;;25.60;92.20;;;;;;6192825;28;94151;-64
2022/07/28 00:44:14;;;;;;;4.90;3.20;;;25.60;92.10;;;;;;6180241;28;94120;-63
2022/07/28 00:47:18;;;;;;;5.03;2.97;;;25.60;92.10;;;;;;6194267;28;94127;-64
2022/07/28 00:50:21;;;;;;;3.40;3.10;;;25.60;91.90;;;;;;6202735;28;93961;-63
2022/07/28 00:53:23;;;;;;;3.50;2.95;;;25.60;91.80;;;;;;6193643;28;93500;-63
2022/07/28 00:56:25;;;;;;;3.38;3.03;;;25.50;91.90;;;;;;6197841;28;94460;-63
2022/07/28 00:59:27;;;;;;;3.33;3.03;;;25.60;91.90;;;;;;6198773;28;94112;-64
2022/07/28 01:02:31;;;;;;;4.40;3.47;;;25.50;91.80;;;;;;6202842;28;95027;-63
2022/07/28 01:05:43;;;;;;;3.63;3.33;;;25.50;91.90;;;;;;6199115;28;92990;-64
2022/07/28 01:08:58;;;;;;;4.03;3.35;;;25.50;91.90;;;;;;6194259;28;96936;-63
2022/07/28 01:12:05;;;;;;;5.07;3.38;;;25.50;91.80;;;;;;6198184;28;95045;-64
2022/07/28 01:15:18;;;;;;;4.20;3.00;;;25.50;91.90;;;;;;6204341;28;93908;-63
2022/07/28 01:18:26;;;;;;;3.33;3.03;;;25.50;91.90;;;;;;6198154;28;94096;-63
2022/07/28 01:21:34;;;;;;;3.50;3.00;;;25.40;91.70;;;;;;6184408;28;94169;-63
2022/07/28 01:24:48;;;;;;;3.67;3.17;;;25.50;91.90;;;;;;6188637;28;93411;-63
2022/07/28 01:28:04;;;;;;;3.50;3.20;;;25.40;91.80;;;;;;6198191;28;94087;-63
2022/07/28 01:31:10;;;;;;;3.10;2.80;;;25.40;91.60;;;;;;6181780;28;94092;-63
2022/07/28 01:34:17;;;;;;;3.90;3.10;;;25.40;91.60;;;;;;6201983;28;95025;-63
2022/07/28 01:37:24;;;;;;;3.60;3.00;;;25.40;91.60;;;;;;6199508;28;94272;-63
2022/07/28 01:40:30;;;;;;;3.28;2.92;;;25.40;91.60;;;;;;6202407;28;94214;-64
2022/07/28 01:43:36;;;;;;;3.67;3.30;;;25.40;91.60;;;;;;6202571;28;94199;-63
2022/07/28 01:46:41;;;;;;;3.22;2.92;;;25.40;91.70;;;;;;6185613;28;93995;-63
2022/07/28 01:49:45;;;;;;;3.75;2.97;;;25.40;91.60;;;;;;6178920;28;94130;-64
2022/07/28 01:52:49;;;;;;;3.58;3.28;;;25.40;91.80;;;;;;6178794;28;94032;-63
2022/07/28 01:55:54;;;;;;;4.05;3.60;;;25.40;91.80;;;;;;6191974;28;93402;-64
2022/07/28 01:58:58;;;;;;;3.97;3.13;;;25.40;91.80;;;;;;6179417;28;93201;-64
2022/07/28 02:02:02;;;;;;;4.15;3.05;;;25.40;91.60;;;;;;6190535;28;94430;-64
2022/07/28 02:05:07;;;;;;;3.38;3.08;;;25.30;91.50;;;;;;6189657;28;95094;-64
2022/07/28 02:08:11;;;;;;;3.40;3.03;;;25.30;91.60;;;;;;6187159;28;94108;-64
2022/07/28 02:14:35;;;;;;;4.07;3.40;;;25.30;91.60;;;;;;6196536;28;93526;-64
2022/07/28 02:17:42;;;;;;;4.35;3.20;;;25.30;91.60;;;;;;6202264;28;94296;-64
2022/07/28 02:20:44;;;;;;;4.07;2.90;;;25.30;91.50;;;;;;6202576;28;94659;-64
2022/07/28 02:23:48;;;;;;;3.80;3.38;;;25.30;91.30;;;;;;6185926;28;94432;-63
2022/07/28 02:26:55;;;;;;;4.68;3.53;;;25.30;91.40;;;;;;6193931;28;93318;-64
2022/07/28 02:30:04;;;;;;;4.05;3.30;;;25.30;91.30;;;;;;6191516;28;94082;-64
2022/07/28 02:33:13;;;;;;;4.15;3.30;;;25.30;91.40;;;;;;6189600;28;94493;-64
2022/07/28 02:36:21;;;;;;;5.18;3.58;;;25.20;91.30;;;;;;6186578;28;95065;-64
2022/07/28 02:39:25;;;;;;;3.85;3.47;;;25.20;91.40;;;;;;6181762;28;93000;-64
2022/07/28 02:42:31;;;;;;;4.45;3.45;;;25.20;91.40;;;;;;6178671;28;94407;-64
2022/07/28 02:45:35;;;;;;;3.95;3.42;;;25.20;91.50;;;;;;6179758;28;94118;-64
2022/07/28 02:48:40;;;;;;;5.53;3.58;;;25.20;91.50;;;;;;6190482;28;94209;-64
2022/07/28 02:51:43;;;;;;;3.88;3.30;;;25.20;91.50;;;;;;6179308;28;94142;-64
2022/07/28 02:54:46;;;;;;;6.40;3.40;;;25.20;91.50;;;;;;6191021;28;94105;-64
2022/07/28 02:57:49;;;;;;;3.65;3.33;;;25.20;91.60;;;;;;6190552;28;92338;-64
2022/07/28 03:00:53;;;;;;;5.55;3.53;;;25.20;91.60;;;;;;6187032;28;94199;-63
2022/07/28 03:03:56;;;;;;;4.15;3.40;;;25.20;91.60;;;;;;6193111;28;94337;-64
2022/07/28 03:06:58;;;;;;;3.85;3.33;;;25.10;91.40;;;;;;6186893;28;94981;-64
2022/07/28 03:10:00;;;;;;;4.05;3.20;;;25.10;91.60;;;;;;6190112;28;94204;-64
2022/07/28 03:13:04;;;;;;;4.45;3.22;;;25.20;91.20;;;;;;6181836;28;94128;-64
2022/07/28 03:16:07;;;;;;;4.03;3.30;;;25.20;91.10;;;;;;6198124;28;94471;-63
2022/07/28 03:19:10;;;;;;;4.03;3.22;;;25.20;91.10;;;;;;6200595;28;94447;-64
2022/07/28 03:22:12;;;;;;;3.60;3.30;;;25.10;91.00;;;;;;6194555;28;94103;-64
2022/07/28 03:25:21;;;;;;;4.30;3.55;;;25.10;91.10;;;;;;6197830;28;94408;-63
2022/07/28 03:28:25;;;;;;;4.88;3.22;;;25.00;91.10;;;;;;6194958;28;93472;-63
2022/07/28 03:31:28;;;;;;;5.47;3.60;;;25.10;91.10;;;;;;6204119;28;94240;-64
2022/07/28 03:34:32;;;;;;;4.05;3.25;;;25.00;91.10;;;;;;6183198;28;94197;-64
2022/07/28 03:37:40;;;;;;;3.80;3.20;;;25.00;91.00;;;;;;6194709;28;95086;-63
2022/07/28 03:40:43;;;;;;;4.85;3.00;;;25.00;91.00;;;;;;6202921;28;94145;-64
2022/07/28 03:43:46;;;;;;;3.97;3.10;;;25.00;91.00;;;;;;6203188;28;94074;-63
2022/07/28 03:46:48;;;;;;;3.22;2.92;;;25.00;90.90;;;;;;6200673;28;94184;-63
2022/07/28 03:49:51;;;;;;;5.50;3.20;;;24.90;90.60;;;;;;6190033;28;94114;-63
2022/07/28 03:52:54;;;;;;;4.93;2.90;;;24.90;90.40;;;;;;6198643;28;94159;-64
2022/07/28 03:55:57;;;;;;;4.80;3.20;;;24.90;90.40;;;;;;6183183;28;94973;-63
2022/07/28 03:58:59;;;;;;;5.03;3.20;;;24.90;90.40;;;;;;6204084;28;93563;-64
2022/07/28 04:02:01;;;;;;;4.18;3.00;;;24.90;90.20;;;;;;6205920;28;94542;-64
2022/07/28 04:05:05;;;;;;;5.15;2.97;;;24.80;90.30;;;;;;6191203;28;93021;-63
2022/07/28 04:08:07;;;;;;;3.33;2.67;;;24.80;90.00;;;;;;6190064;28;95235;-64
2022/07/28 04:11:09;;;;;;;3.42;2.92;;;24.80;90.20;;;;;;6195461;28;94223;-64
2022/07/28 04:14:11;;;;;;;4.03;2.80;;;24.70;89.80;;;;;;6196581;28;94467;-64
2022/07/28 04:17:13;;;;;;;5.55;3.17;;;24.80;90.10;;;;;;6201329;28;94024;-64
2022/07/28 04:20:17;;;;;;;5.65;3.42;;;24.70;89.70;;;;;;6203627;28;94192;-64
2022/07/28 04:23:19;;;;;;;4.13;2.72;;;24.60;88.80;;;;;;6180847;28;94389;-63
2022/07/28 04:26:21;;;;;;;3.15;2.80;;;24.50;89.40;;;;;;6193067;28;94184;-64
2022/07/28 04:29:23;;;;;;;4.63;2.90;;;24.50;90.00;;;;;;6192286;28;93749;-63
2022/07/28 04:32:25;;;;;;;3.20;2.67;;;24.50;90.00;;;;;;6181529;28;94100;-63
2022/07/28 04:35:29;;;;;;;4.68;2.70;;;24.50;90.10;;;;;;6193507;28;94090;-63
2022/07/28 04:38:31;;;;;;;4.45;3.17;;;24.50;89.40;;;;;;6199763;28;95150;-63
2022/07/28 04:41:33;;;;;;;5.35;2.90;;;24.40;89.40;;;;;;6200190;28;92979;-63
2022/07/28 04:44:39;;;;;;;5.40;3.03;;;24.40;89.20;;;;;;6189869;28;94131;-63
2022/07/28 04:47:41;;;;;;;4.55;3.10;;;24.30;88.80;;;;;;6199576;28;94065;-64
2022/07/28 04:50:45;;;;;;;3.38;2.92;;;24.30;89.40;;;;;;6193048;28;94416;-63
2022/07/28 04:53:47;;;;;;;5.15;3.05;;;24.10;89.60;;;;;;6199531;28;94148;-64
2022/07/28 04:56:49;;;;;;;3.53;2.95;;;24.10;90.30;;;;;;6189592;28;94171;-64
2022/07/28 04:59:53;;;;;;;5.68;3.22;;;24.10;90.70;;;;;;6200418;28;93523;-64
2022/07/28 05:02:57;;;;;;;4.60;3.05;;;24.10;90.70;;;;;;6203711;28;94237;-64
2022/07/28 05:06:00;;;;;;;4.03;3.10;;;24.00;90.80;;;;;;6198094;28;94434;-64
2022/07/28 05:09:03;;;;;;;4.47;2.90;;;24.00;90.80;;;;;;6199318;28;94226;-64
2022/07/28 05:12:05;;;;;;;5.10;2.83;;;23.90;90.70;;;;;;6189567;28;94145;-65
2022/07/28 05:15:08;;;;;;;6.63;3.00;;;23.90;91.00;;;;;;6190249;28;94083;-64
2022/07/28 05:18:10;;;;;;;5.30;2.80;;;23.90;91.20;;;;;;6201138;28;94111;-65
2022/07/28 05:21:14;;;;;;;5.65;3.05;;;23.90;91.20;;;;;;6189982;28;94542;-64
2022/07/28 05:24:16;;;;;;;4.30;3.10;;;23.90;91.20;;;;;;6182870;28;94199;-64
2022/07/28 05:27:18;;;;;;;5.03;3.10;;;23.90;91.00;;;;;;6177597;28;93046;-65
2022/07/28 05:30:20;;;;;;;3.95;2.95;;;23.80;91.30;;;;;;6194158;28;93786;-64
2022/07/28 05:33:22;;;;;;;4.93;2.97;;;23.70;91.40;;;;;;6193677;28;94023;-65
2022/07/28 05:36:26;;;;;;;4.60;3.10;;;23.80;91.60;;;;;;6193772;28;94148;-64
2022/07/28 05:39:28;;;;;;;4.45;3.22;;;23.70;91.60;;;;;;6201492;28;96964;-64
2022/07/28 05:42:34;;;;;;;4.50;3.05;;;23.70;91.90;;;;;;6191996;28;94210;-64
2022/07/28 05:45:36;;;;;;;5.13;3.05;;;23.70;92.00;;;;;;6201251;28;94170;-65
2022/07/28 05:48:38;;;;;;;3.63;3.13;;;23.70;92.10;;;;;;6195171;28;94030;-64
2022/07/28 05:51:41;;;;;;;5.10;3.22;;;23.70;91.90;;;;;;6196129;28;94019;-65
2022/07/28 05:54:43;;;;;;;5.22;2.88;;;23.70;91.90;;;;;;6192175;28;94235;-64
2022/07/28 05:57:46;;;;;;;4.78;2.88;;;23.70;91.90;;;;;;6198934;28;94143;-64
2022/07/28 06:00:48;;;;;;;5.53;3.20;;;23.60;91.60;;;;;;6198601;28;93407;-64
2022/07/28 06:03:51;;;;;;;4.97;2.95;;;23.60;91.80;;;;;;6199875;28;94142;-65
2022/07/28 06:06:55;;;;;;;4.50;3.33;;;23.60;92.00;;;;;;6193601;28;94517;-65
2022/07/28 06:09:57;;;;;;;4.93;2.92;;;23.60;91.60;;;;;;6189771;28;95114;-65
2022/07/28 06:13:01;;;;;;;7.20;2.90;;;23.50;91.50;;;;;;6200312;28;93323;-64
2022/07/28 06:16:03;;;;;;;3.50;2.90;;;23.50;91.80;;;;;;6186001;28;94308;-64
2022/07/28 06:19:05;;;;;;;3.88;3.03;;;23.40;92.00;;;;;;6202338;28;94435;-65
2022/07/28 06:22:09;;;;;;;4.40;3.20;;;23.30;91.80;;;;;;6198025;28;94007;-65
2022/07/28 06:25:15;;;;;;;6.10;3.38;;;23.30;92.10;;;;;;6192190;28;94164;-65
2022/07/28 06:28:18;;;;;;;4.50;3.10;;;23.30;92.50;;;;;;6202285;28;97020;-64
2022/07/28 06:31:20;;;;;;;4.00;3.00;;;23.30;92.70;;;;;;6191344;28;93712;-64
2022/07/28 06:34:22;;;;;;;5.68;3.20;;;23.20;92.90;;;;;;6192069;28;94095;-65
2022/07/28 06:37:26;;;;;;;5.70;3.30;;;23.20;93.00;;;;;;6197151;28;94005;-64
2022/07/28 06:40:28;;;;;;;5.05;3.13;;;23.20;93.20;;;;;;6179853;28;95062;-64
2022/07/28 06:43:31;;;;;;;4.05;3.20;;;23.20;93.50;;;;;;6184893;28;94086;-64
2022/07/28 06:46:33;;;;;;;4.88;3.30;;;23.30;93.40;;;;;;6194459;28;93157;-64
2022/07/28 06:49:35;;;;;;;7.80;4.00;;;23.30;93.60;;;;;;6187957;28;93475;-64
2022/07/28 06:52:39;;;;;;;5.65;3.80;;;23.30;93.70;;;;;;6185689;28;94181;-65
2022/07/28 06:55:41;;;;;;;4.88;3.40;;;23.30;93.60;;;;;;6192793;28;94854;-64
2022/07/28 06:58:43;;;;;;;5.68;3.70;;;23.30;93.70;;;;;;6188163;28;94124;-65
2022/07/28 07:01:45;;;;;;;6.53;3.80;;;23.30;93.40;;;;;;6182739;28;92614;-64
2022/07/28 07:04:47;;;;;;;5.05;3.60;;;23.30;93.70;;;;;;6191622;28;94069;-65
2022/07/28 07:07:50;;;;;;;3.75;3.30;;;23.30;93.70;;;;;;6178957;28;94456;-64
2022/07/28 07:10:52;;;;;;;4.50;3.47;;;23.30;93.80;;;;;;6183435;28;95043;-64
2022/07/28 07:13:54;;;;;;;5.72;3.92;;;23.30;94.10;;;;;;6195248;28;94170;-64
2022/07/28 07:16:56;;;;;;;6.28;4.30;;;23.30;94.40;;;;;;6201604;28;94246;-64
2022/07/28 07:19:58;;;;;;;5.25;3.90;;;23.30;94.70;;;;;;6178282;28;94111;-65
2022/07/28 07:23:02;;;;;;;5.13;3.95;;;23.30;95.00;;;;;;6190096;28;94144;-64
2022/07/28 07:26:04;;;;;;;5.07;3.85;;;23.30;95.00;;;;;;6182818;28;94075;-65
2022/07/28 07:29:06;;;;;;;5.32;4.20;;;23.30;95.30;;;;;;6200200;28;94713;-64
2022/07/28 07:32:08;;;;;;;5.40;4.07;;;23.40;95.40;;;;;;6187892;28;92127;-65
2022/07/28 07:35:11;;;;;;;5.65;4.25;;;23.40;96.00;;;;;;6198331;28;93201;-65
2022/07/28 07:38:14;;;;;;;5.90;4.05;;;23.30;96.00;;;;;;6198978;28;94240;-64
2022/07/28 07:41:17;;;;;;;6.07;4.40;;;23.30;95.70;;;;;;6192668;28;95103;-64
2022/07/28 07:44:19;;;;;;;5.47;4.32;;;23.40;95.90;;;;;;6201128;28;94087;-64
2022/07/28 07:47:21;;;;;;;5.25;4.28;;;23.30;96.20;;;;;;6193251;28;94113;-64
2022/07/28 07:50:23;;;;;;;5.90;4.35;;;23.30;96.30;;;;;;6187434;28;94429;-64
2022/07/28 07:53:27;;;;;;;5.55;4.25;;;23.30;96.60;;;;;;6181904;28;94493;-65
2022/07/28 07:56:29;;;;;;;5.00;4.10;;;23.30;97.10;;;;;;6188257;28;94048;-65
2022/07/28 07:59:31;;;;;;;4.72;4.22;;;23.30;97.50;;;;;;6180686;28;95052;-65
2022/07/28 08:02:33;;;;;;;4.85;4.30;;;23.30;97.60;;;;;;6200444;28;93710;-64
2022/07/28 08:05:35;;;;;;;5.28;4.25;;;23.30;97.70;;;;;;6197505;28;94077;-65
2022/07/28 08:08:38;;;;;;;4.97;4.50;;;23.30;98.20;;;;;;6186691;28;94478;-65
2022/07/28 08:11:40;;;;;;;4.18;3.75;;;23.20;98.20;;;;;;6197238;28;95412;-64
2022/07/28 08:14:42;;;;;;;4.80;4.00;;;23.30;98.50;;;;;;6194643;28;94230;-65
2022/07/28 08:17:44;;;;;;;4.38;3.97;;;23.20;98.90;;;;;;6205436;28;94369;-64
2022/07/28 08:20:46;;;;;;;4.95;4.50;;;23.30;99.00;;;;;;6198863;28;94540;-65
2022/07/28 08:23:50;;;;;;;6.30;4.20;;;23.30;99.10;;;;;;6194297;28;94126;-64
2022/07/28 08:26:52;;;;;;;6.95;4.60;;;23.30;99.10;;;;;;6180729;28;94181;-65
2022/07/28 08:29:54;;;;;;;7.53;5.18;;;23.30;99.80;;;;;;6193395;28;94669;-64
2022/07/28 08:32:56;;;;;;;5.95;4.43;;;23.30;98.70;;;;;;6204172;28;93429;-65
2022/07/28 08:35:58;;;;;;;5.10;4.15;;;23.30;98.90;;;;;;6193091;28;94116;-65
2022/07/28 08:39:02;;;;;;;4.55;4.07;;;23.40;98.80;;;;;;6193254;28;94281;-66
2022/07/28 08:42:06;;;;;;;5.05;4.20;;;23.30;98.60;;;;;;6179659;28;94279;-66
2022/07/28 08:45:10;;;;;;;5.70;4.10;;;23.40;97.70;;;;;;6192837;28;94094;-65
2022/07/28 08:48:14;;;;;;;5.18;3.80;;;23.40;97.50;;;;;;6183309;28;94323;-65
2022/07/28 08:51:16;;;;;;;4.85;4.00;;;23.40;97.20;;;;;;6179450;28;94496;-65
2022/07/28 08:54:22;;;;;;;6.15;4.00;;;23.30;96.90;;;;;;6199387;28;94183;-65
2022/07/28 08:57:28;;;;;;;4.72;3.95;;;23.30;97.60;;;;;;6186085;28;94385;-66
2022/07/28 09:00:30;;;;;;;5.30;4.07;;;23.40;97.60;;;;;;6183477;28;94076;-65
2022/07/28 09:03:32;;;;;;;7.15;4.50;;;23.40;98.20;;;;;;6204223;28;93475;-65
2022/07/28 09:06:40;;;;;;;5.65;3.83;;;23.40;98.20;;;;;;6198301;28;93981;-66
2022/07/28 09:09:44;;;;;;;5.97;4.47;;;23.40;98.00;;;;;;6187300;28;93012;-66
2022/07/28 09:12:46;;;;;;;7.00;4.57;;;23.40;97.30;;;;;;6182874;28;95062;-65
2022/07/28 09:15:48;;;;;;;5.60;3.60;;;23.40;97.20;;;;;;6185217;28;92966;-65
2022/07/28 09:18:50;;;;;;;4.57;3.83;;;23.30;97.50;;;;;;6192325;28;93101;-66
2022/07/28 09:21:52;;;;;;;5.47;3.78;;;23.30;97.80;;;;;;6193607;28;94065;-66
2022/07/28 09:24:56;;;;;;;4.95;3.58;;;23.30;98.20;;;;;;6195547;28;94135;-66
2022/07/28 09:28:07;;;;;;;7.82;3.80;;;23.30;97.60;;;;;;6189105;28;94076;-65
2022/07/28 09:31:09;;;;;;;6.32;3.95;;;23.40;97.20;;;;;;6189065;28;94238;-65
2022/07/28 09:34:11;;;;;;;4.55;3.83;;;23.40;97.40;;;;;;6191161;28;93403;-66
2022/07/28 09:37:20;;;;;;;6.38;4.10;;;23.30;98.20;;;;;;6197125;28;94145;-65
2022/07/28 09:40:24;;;;;;;4.03;3.63;;;23.40;98.20;;;;;;6192760;28;93995;-66
2022/07/28 09:43:36;;;;;;;4.75;3.92;;;23.40;98.20;;;;;;6188738;28;95102;-66
2022/07/28 09:46:39;;;;;;;6.95;4.00;;;23.40;97.80;;;;;;6191135;28;94004;-65
2022/07/28 09:49:42;;;;;;;4.90;3.50;;;23.40;97.90;;;;;;6199038;28;94250;-66
2022/07/28 09:52:44;;;;;;;5.55;3.47;;;23.50;97.80;;;;;;6184605;28;94417;-65
2022/07/28 09:55:56;;;;;;;4.78;3.72;;;23.40;98.10;;;;;;6195312;28;94065;-66
2022/07/28 09:58:59;;;;;;;5.35;3.95;;;23.40;98.00;;;;;;6202583;28;93044;-65
2022/07/28 10:02:01;;;;;;;5.38;3.78;;;23.50;98.30;;;;;;6191667;28;94201;-65
2022/07/28 10:05:05;;;;;;;4.82;3.83;;;23.50;98.20;;;;;;6199411;28;93664;-65
2022/07/28 10:08:07;;;;;;;7.10;3.80;;;23.50;97.60;;;;;;6187087;28;94098;-63
2022/07/28 10:11:11;;;;;;;9.88;8.88;;;23.50;97.40;;;;;;6181900;28;93032;-63
2022/07/28 10:14:14;;;;;;;776.53;558.78;;;23.50;98.30;;;;;;6190822;28;95067;-62
2022/07/28 10:17:29;;;;;;;1209.05;760.95;;;23.60;99.50;;;;;;6196890;28;94113;-62
2022/07/28 10:20:32;;;;;;;351.45;226.07;;;23.60;99.90;;;;;;6200800;28;94232;-62
2022/07/28 10:23:36;;;;;;;81.32;52.78;;;23.80;99.90;;;;;;6187746;28;94142;-61
2022/07/28 10:26:44;;;;;;;38.10;24.10;;;23.90;98.40;;;;;;6180085;28;94104;-63
2022/07/28 10:29:49;;;;;;;22.10;13.65;;;24.00;97.70;;;;;;6185947;28;94138;-63
2022/07/28 10:32:54;;;;;;;8.98;7.20;;;24.00;97.80;;;;;;6191796;28;94414;-63
2022/07/28 10:35:56;;;;;;;8.50;5.82;;;24.00;97.40;;;;;;6191255;28;93357;-63
2022/07/28 10:39:04;;;;;;;5.60;4.75;;;24.00;96.90;;;;;;6188005;28;94079;-63
2022/07/28 10:42:11;;;;;;;6.05;4.10;;;24.00;97.50;;;;;;6190241;28;94206;-64
2022/07/28 10:45:14;;;;;;;8.10;4.22;;;24.00;98.10;;;;;;6185989;28;95164;-63
2022/07/28 10:48:17;;;;;;;4.28;3.80;;;24.00;98.40;;;;;;6195989;28;93027;-64
2022/07/28 10:51:21;;;;;;;5.10;4.00;;;24.00;98.10;;;;;;6197053;28;94362;-63
2022/07/28 10:54:27;;;;;;;5.43;4.15;;;24.00;97.60;;;;;;6189085;28;94264;-63
2022/07/28 10:57:32;;;;;;;4.82;3.42;;;24.00;98.30;;;;;;6185746;28;94129;-63
2022/07/28 11:00:43;;;;;;;5.05;3.58;;;24.00;98.20;;;;;;6188918;28;94460;-64
2022/07/28 11:03:46;;;;;;;4.28;3.83;;;24.00;98.10;;;;;;6200059;28;93983;-63
2022/07/28 11:06:48;;;;;;;4.15;3.75;;;24.10;98.40;;;;;;6188049;28;92270;-63
2022/07/28 11:09:50;;;;;;;5.03;3.70;;;24.10;97.70;;;;;;6188342;28;94138;-63
2022/07/28 11:12:55;;;;;;;4.82;4.00;;;24.10;97.40;;;;;;6195890;28;95224;-64
2022/07/28 11:16:17;;;;;;;4.00;3.63;;;24.10;97.10;;;;;;6182768;28;95298;-63
2022/07/28 11:19:19;;;;;;;4.75;3.67;;;24.10;97.80;;;;;;6195819;28;94203;-64
2022/07/28 11:22:26;;;;;;;5.15;3.97;;;24.10;98.40;;;;;;6192718;28;94052;-64
2022/07/28 11:25:30;;;;;;;4.20;3.80;;;24.10;98.10;;;;;;6191776;28;94404;-64
2022/07/28 11:29:09;;;;;;;4.32;3.75;;;24.10;98.00;;;;;;6189753;28;94164;-63
2022/07/28 11:32:11;;;;;;;4.32;3.92;;;24.10;97.90;;;;;;6192949;28;94296;-64
2022/07/28 11:35:13;;;;;;;3.80;3.50;;;24.10;98.40;;;;;;6190586;28;94101;-63
2022/07/28 11:38:16;;;;;;;4.25;3.80;;;24.10;97.50;;;;;;6195877;28;93372;-64
2022/07/28 11:41:30;;;;;;;4.20;3.80;;;24.20;97.60;;;;;;6194668;28;94847;-63
2022/07/28 11:44:33;;;;;;;6.25;4.00;;;24.20;98.10;;;;;;6192507;28;94167;-63
2022/07/28 11:47:35;;;;;;;4.95;3.58;;;24.20;98.10;;;;;;6189927;28;95090;-63
2022/07/28 11:50:37;;;;;;;3.90;3.53;;;24.20;98.20;;;;;;6193518;28;94494;-64
2022/07/28 11:53:41;;;;;;;3.70;3.40;;;24.20;98.40;;;;;;6194739;28;94080;-63
2022/07/28 11:56:44;;;;;;;4.75;3.67;;;24.20;98.60;;;;;;6183331;28;94073;-63
2022/07/28 11:59:50;;;;;;;3.85;3.55;;;24.30;98.60;;;;;;6192875;28;94094;-63
2022/07/28 12:02:52;;;;;;;4.70;3.67;;;24.30;98.30;;;;;;6198630;28;94343;-63
2022/07/28 12:05:57;;;;;;;4.82;3.78;;;24.30;99.10;;;;;;6196105;28;94203;-63
2022/07/28 12:09:02;;;;;;;5.53;4.20;;;24.30;99.20;;;;;;6198654;28;93398;-63
2022/07/28 12:12:06;;;;;;;5.93;3.80;;;24.30;98.80;;;;;;6192087;28;93133;-63
2022/07/28 12:15:16;;;;;;;5.60;3.90;;;24.30;98.30;;;;;;6193574;28;94244;-63
2022/07/28 12:18:18;;;;;;;5.13;3.80;;;24.30;98.70;;;;;;6202161;28;97298;-63
2022/07/28 12:21:35;;;;;;;5.65;3.83;;;24.30;98.60;;;;;;6196570;28;94160;-63
2022/07/28 12:24:37;;;;;;;5.22;3.90;;;24.40;98.70;;;;;;6194311;28;94146;-63
2022/07/28 12:27:39;;;;;;;4.55;4.13;;;24.30;98.80;;;;;;6187938;28;94136;-63
2022/07/28 12:30:43;;;;;;;4.07;3.65;;;24.40;98.90;;;;;;6197155;28;94491;-64
2022/07/28 12:33:45;;;;;;;4.63;3.95;;;24.40;98.60;;;;;;6186192;28;94047;-63
2022/07/28 12:36:48;;;;;;;4.78;4.28;;;24.40;98.80;;;;;;6198731;28;94433;-63
2022/07/28 12:39:51;;;;;;;4.60;4.20;;;24.40;99.00;;;;;;6192780;28;93306;-64
2022/07/28 12:42:53;;;;;;;4.30;3.90;;;24.40;99.40;;;;;;6183878;28;94158;-64
2022/07/28 12:45:57;;;;;;;4.82;4.35;;;24.40;99.60;;;;;;6202756;28;93007;-64
2022/07/28 12:49:01;;;;;;;4.93;4.30;;;24.50;99.30;;;;;;6189862;28;95432;-64
2022/07/28 12:52:19;;;;;;;4.38;3.88;;;24.50;99.00;;;;;;6180947;28;94178;-64
2022/07/28 12:55:23;;;;;;;4.53;4.07;;;24.50;99.30;;;;;;6194108;28;93922;-63
2022/07/28 12:58:27;;;;;;;4.72;4.00;;;24.50;99.70;;;;;;6190213;28;94127;-64
2022/07/28 13:04:59;;;;;;;4.80;4.28;;;24.50;99.90;;;;;;6268445;27;81219;-65
2022/07/28 13:08:02;;;;;;;4.57;4.18;;;24.50;99.90;;;;;;6251109;27;82285;-65
2022/07/28 13:11:04;;;;;;;5.60;4.30;;;24.60;99.90;;;;;;6252356;27;82307;-62
2022/07/28 13:14:06;;;;;;;6.68;4.38;;;24.60;99.90;;;;;;6251733;27;81164;-63
2022/07/28 13:17:08;;;;;;;5.05;4.32;;;24.60;99.90;;;;;;6245914;28;82697;-64
2022/07/28 13:20:13;;;;;;;5.20;4.20;;;24.60;99.90;;;;;;6252635;27;81916;-64
2022/07/28 13:23:14;;;;;;;4.57;4.18;;;24.60;99.90;;;;;;6246516;27;82477;-61
2022/07/28 13:26:16;;;;;;;5.05;4.53;;;24.60;99.90;;;;;;6251913;28;82299;-66
2022/07/28 13:29:19;;;;;;;5.30;4.50;;;24.70;99.90;;;;;;6247721;27;82624;-63
2022/07/28 13:32:21;;;;;;;4.60;4.20;;;24.70;99.90;;;;;;6235309;28;82682;-64
2022/07/28 13:35:24;;;;;;;4.97;4.47;;;24.70;99.90;;;;;;6247107;27;81177;-65
2022/07/28 13:38:26;;;;;;;7.55;4.32;;;24.70;99.90;;;;;;6249661;28;82629;-65
2022/07/28 13:41:28;;;;;;;4.10;3.80;;;24.70;99.90;;;;;;6234172;27;82583;-65
2022/07/28 13:44:31;;;;;;;5.45;4.53;;;24.70;99.90;;;;;;6239184;28;82750;-65
2022/07/28 13:47:33;;;;;;;4.95;4.45;;;24.70;99.90;;;;;;6242145;28;82324;-65
2022/07/28 13:50:39;;;;;;;5.45;4.57;;;24.70;99.90;;;;;;6250516;28;82287;-65
2022/07/28 13:53:41;;;;;;;5.32;4.40;;;24.70;99.90;;;;;;6238000;28;82302;-65
2022/07/28 13:56:43;;;;;;;5.10;4.50;;;24.80;99.90;;;;;;6237576;28;82373;-65
2022/07/28 13:59:45;;;;;;;4.85;4.30;;;24.80;99.90;;;;;;6245468;28;82538;-65
2022/07/28 14:02:48;;;;;;;4.45;4.05;;;24.80;99.90;;;;;;6250419;27;82245;-65
2022/07/28 14:05:51;;;;;;;5.07;4.32;;;24.80;99.90;;;;;;6247261;27;82405;-65
2022/07/28 14:08:54;;;;;;;4.60;4.20;;;24.80;99.90;;;;;;6250932;28;83557;-65
2022/07/28 14:11:56;;;;;;;4.50;4.10;;;24.80;99.90;;;;;;6251182;28;82753;-65
2022/07/28 14:14:58;;;;;;;6.40;4.45;;;24.80;99.90;;;;;;6236400;28;82276;-65
2022/07/28 14:18:00;;;;;;;4.53;4.13;;;24.80;99.90;;;;;;6226439;28;81277;-65
2022/07/28 14:21:05;;;;;;;4.90;4.50;;;24.90;99.90;;;;;;6225428;28;82224;-65
2022/07/28 14:24:07;;;;;;;5.28;4.72;;;24.80;99.90;;;;;;6214710;28;81272;-65
2022/07/28 14:27:10;;;;;;;4.82;4.32;;;24.90;99.90;;;;;;6230132;28;82311;-65
2022/07/28 14:30:13;;;;;;;5.25;4.20;;;24.90;99.90;;;;;;6224277;28;82435;-65
2022/07/28 14:33:15;;;;;;;5.20;4.70;;;24.90;99.90;;;;;;6235541;28;82241;-66
2022/07/28 14:36:18;;;;;;;7.15;4.75;;;24.90;99.90;;;;;;6228072;28;81544;-66
2022/07/28 14:39:20;;;;;;;7.20;5.05;;;24.90;99.90;;;;;;6235207;28;82236;-65
2022/07/28 14:42:25;;;;;;;6.22;4.50;;;24.90;99.90;;;;;;6228082;28;82480;-65
2022/07/28 14:45:27;;;;;;;5.38;4.38;;;24.90;99.90;;;;;;6231010;28;82372;-65
2022/07/28 14:48:30;;;;;;;5.70;4.90;;;24.90;99.90;;;;;;6223691;28;82528;-65
2022/07/28 14:51:35;;;;;;;7.63;4.85;;;24.90;99.90;;;;;;6223196;28;82065;-66
2022/07/28 14:54:37;;;;;;;6.65;4.57;;;24.90;99.90;;;;;;6230050;28;82092;-65
2022/07/28 14:57:39;;;;;;;5.38;4.88;;;24.90;99.90;;;;;;6223122;28;81227;-65
2022/07/28 15:00:42;;;;;;;5.38;4.82;;;25.00;99.90;;;;;;6228713;28;81192;-65
2022/07/28 15:03:45;;;;;;;5.28;4.60;;;25.00;99.90;;;;;;6225451;28;82679;-65
2022/07/28 15:06:48;;;;;;;6.07;4.82;;;25.00;99.90;;;;;;6235717;28;82393;-65
2022/07/28 15:09:50;;;;;;;5.78;4.68;;;25.00;99.90;;;;;;6228488;28;82246;-66
2022/07/28 15:12:52;;;;;;;5.00;4.57;;;25.00;99.90;;;;;;6227369;28;82267;-66
2022/07/28 15:15:54;;;;;;;4.95;4.55;;;25.00;99.90;;;;;;6231354;28;82448;-66
2022/07/28 15:18:57;;;;;;;5.22;4.72;;;25.00;99.90;;;;;;6236135;28;81251;-65
2022/07/28 15:22:00;;;;;;;7.78;5.10;;;25.00;99.90;;;;;;6220966;28;82307;-65
2022/07/28 15:25:02;;;;;;;6.03;4.75;;;25.00;99.90;;;;;;6236138;28;82419;-65
2022/07/28 15:28:05;;;;;;;6.00;4.60;;;25.00;99.90;;;;;;6234360;28;81192;-65
2022/07/28 15:31:07;;;;;;;5.13;4.63;;;25.00;99.90;;;;;;6226434;28;81223;-65
2022/07/28 15:34:09;;;;;;;5.95;4.97;;;25.00;99.90;;;;;;6210911;28;81387;-66
2022/07/28 15:37:12;;;;;;;5.40;4.90;;;25.00;99.90;;;;;;6230912;28;82396;-65
2022/07/28 15:40:14;;;;;;;6.00;4.97;;;25.00;99.90;;;;;;6225395;28;82658;-65
2022/07/28 15:43:16;;;;;;;5.80;5.30;;;25.00;99.90;;;;;;6229130;28;82350;-65
2022/07/28 15:46:18;;;;;;;5.28;4.78;;;25.00;99.90;;;;;;6228770;28;82131;-66
2022/07/28 15:49:20;;;;;;;5.63;5.13;;;25.00;99.90;;;;;;6214107;28;82260;-65
2022/07/28 15:52:23;;;;;;;5.20;4.80;;;25.00;99.90;;;;;;6223218;28;82299;-65
2022/07/28 15:55:25;;;;;;;5.35;4.88;;;25.00;99.90;;;;;;6217257;28;82331;-66
2022/07/28 15:58:27;;;;;;;5.65;4.78;;;25.10;99.90;;;;;;6232556;28;82863;-65
2022/07/28 16:01:30;;;;;;;5.10;4.70;;;25.10;99.80;;;;;;6232743;28;82311;-65